LTFH Airport Information

Runway Information
Runway 13 Length 9843 ft width 148 ft
Elevation 10 ft Threshold 0 ft Heading 134
Runway 31 Length 9843 ft Width 148 ft
Elevation 17 ft Threshold 0 ft Heading 314
Airport Frequencies
Type APP Name APP Frequency 118.175 MHZ
Type ATIS Name ATIS Frequency 129.35 MHZ
Type GND Name GND Frequency 121.7 MHZ
Type TWR Name TWR Frequency 118.35 MHZ
Airport Navaids
Type NDB Name Carsamba Frequency 325 KHZ
Type VOR-DME Name Carsamba Frequency 112800 KHZ
Airport Weather Information & NOTAM
ADDS - METARS form results

(2003 UTC 22 July 2018)
 
METAR text: LTFH 221950Z VRB02KT CAVOK 23/20 Q1009 NOSIG
Conditions at: LTFH (CARSAMBA , TR) observed 1950 UTC 22 July 2018
Temperature: 23.0°C (73°F)
Dewpoint: 20.0°C (68°F) [RH = 83%]
Pressure (altimeter): 29.79 inches Hg (1009.0 mb)
Winds: variable direction winds at 2 MPH (2 knots; 1.0 m/s)
Visibility: 6 or more miles (10+ km)
Ceiling: ceiling and visibility are OK
Clouds: unknown
Weather: no significant weather observed at this time